createdAt,value
2017-08-01T00:02:07.872Z,23.40
2017-08-01T00:04:36.900Z,23.60
2017-08-01T00:07:10.508Z,23.80
2017-08-01T00:09:39.503Z,23.70
2017-08-01T00:12:09.516Z,23.70
2017-08-01T00:14:38.508Z,23.70
2017-08-01T00:17:16.212Z,23.70
2017-08-01T00:19:44.236Z,23.70
2017-08-01T00:22:18.268Z,23.60
2017-08-01T00:24:49.316Z,23.60
2017-08-01T00:27:20.064Z,23.50
2017-08-01T00:29:51.704Z,23.40
2017-08-01T00:32:19.736Z,23.40
2017-08-01T00:34:49.709Z,23.30
2017-08-01T00:37:19.504Z,23.20
2017-08-01T00:39:49.531Z,23.10
2017-08-01T00:42:18.516Z,23.10
2017-08-01T00:45:00.459Z,23.10
2017-08-01T00:47:36.339Z,23.00
2017-08-01T00:50:23.451Z,23.00
2017-08-01T00:52:51.496Z,23.00
2017-08-01T00:55:19.524Z,23.00
2017-08-01T00:57:49.548Z,22.90
2017-08-01T01:00:19.547Z,22.90
2017-08-01T01:05:20.839Z,22.40
2017-08-01T01:07:51.551Z,22.00
2017-08-01T01:10:20.555Z,22.00
2017-08-01T01:12:48.571Z,21.80
2017-08-01T01:15:17.599Z,21.60
2017-08-01T01:17:53.656Z,21.40
2017-08-01T01:20:22.655Z,21.40
2017-08-01T01:22:51.647Z,21.30
2017-08-01T01:25:19.667Z,21.20
2017-08-01T01:27:47.691Z,21.00
2017-08-01T01:30:17.712Z,20.90
2017-08-01T01:32:48.987Z,20.80
2017-08-01T01:35:23.367Z,20.90
2017-08-01T01:37:51.411Z,20.90
2017-08-01T01:40:23.887Z,21.00
2017-08-01T01:42:53.847Z,21.10
2017-08-01T01:45:23.631Z,21.00
2017-08-01T01:47:59.803Z,21.00
2017-08-01T01:50:28.779Z,21.20
2017-08-01T01:53:02.396Z,21.20
2017-08-01T01:55:38.926Z,21.20
2017-08-01T01:58:07.971Z,21.20
2017-08-01T02:00:36.943Z,21.10
2017-08-01T02:03:08.091Z,21.20
2017-08-01T02:05:36.107Z,21.20
2017-08-01T02:08:21.991Z,21.20
2017-08-01T02:10:51.955Z,21.20
2017-08-01T02:13:25.774Z,21.20
2017-08-01T02:15:55.779Z,21.20
2017-08-01T02:18:23.799Z,21.10
2017-08-01T02:20:53.767Z,21.00
2017-08-01T02:23:21.795Z,20.90
2017-08-01T02:25:53.191Z,20.90
2017-08-01T02:28:24.944Z,20.90
2017-08-01T02:30:56.293Z,20.90
2017-08-01T02:33:24.334Z,20.90
2017-08-01T02:35:54.263Z,20.90
2017-08-01T02:38:22.283Z,21.00
2017-08-01T02:40:50.323Z,21.20
2017-08-01T02:43:19.315Z,21.30
2017-08-01T02:45:55.759Z,21.40
2017-08-01T02:48:23.774Z,21.40
2017-08-01T02:50:54.465Z,21.50
2017-08-01T02:53:22.508Z,21.50
2017-08-01T02:55:54.199Z,21.40
2017-08-01T02:58:24.222Z,21.40
2017-08-01T03:00:52.247Z,21.40
2017-08-01T03:03:22.194Z,21.40
2017-08-01T03:05:51.191Z,21.30
2017-08-01T03:08:19.210Z,21.30
2017-08-01T03:10:48.158Z,21.20
2017-08-01T03:13:22.970Z,21.20
2017-08-01T03:15:54.947Z,21.20
2017-08-01T03:18:22.986Z,21.10
2017-08-01T03:20:52.930Z,21.10
2017-08-01T03:23:20.961Z,21.00
2017-08-01T03:25:48.994Z,21.10
2017-08-01T03:28:19.698Z,21.10
2017-08-01T03:30:49.731Z,21.10
2017-08-01T03:33:17.762Z,21.20
2017-08-01T03:35:45.778Z,21.20
2017-08-01T03:38:19.538Z,21.10
2017-08-01T03:40:51.322Z,21.10
2017-08-01T03:43:19.370Z,21.10
2017-08-01T03:45:48.382Z,21.20
2017-08-01T03:48:22.786Z,21.20
2017-08-01T03:50:56.682Z,21.20
2017-08-01T03:53:32.135Z,21.20
2017-08-01T03:56:02.102Z,21.30
2017-08-01T03:58:31.902Z,21.40
2017-08-01T04:01:06.170Z,21.40
2017-08-01T04:03:59.861Z,21.40
2017-08-01T04:06:52.586Z,21.40
2017-08-01T04:09:22.578Z,21.40
2017-08-01T04:12:01.978Z,21.40
2017-08-01T04:14:36.445Z,21.40
2017-08-01T04:17:07.026Z,21.30
2017-08-01T04:19:36.062Z,21.30
2017-08-01T04:22:06.083Z,21.20
2017-08-01T04:24:43.842Z,21.10
2017-08-01T04:27:11.962Z,21.10
2017-08-01T04:29:45.541Z,21.10
2017-08-01T04:32:16.306Z,20.90
2017-08-01T04:35:03.873Z,20.90
2017-08-01T04:37:33.805Z,20.80
2017-08-01T04:40:03.605Z,20.70
2017-08-01T04:42:40.449Z,20.70
2017-08-01T04:45:09.470Z,20.70
2017-08-01T04:47:45.681Z,20.70
2017-08-01T04:50:15.665Z,20.60
2017-08-01T04:52:44.456Z,20.60
2017-08-01T04:55:13.246Z,20.60
2017-08-01T04:57:45.509Z,20.60
2017-08-01T05:00:20.697Z,20.60
2017-08-01T05:03:00.453Z,20.60
2017-08-01T05:05:40.861Z,20.60
2017-08-01T05:08:21.049Z,20.70
2017-08-01T05:11:02.302Z,20.70
2017-08-01T05:13:38.090Z,20.80
2017-08-01T05:16:10.282Z,20.90
2017-08-01T05:18:43.906Z,21.00
2017-08-01T05:21:21.233Z,21.20
2017-08-01T05:26:57.489Z,21.40
2017-08-01T05:29:25.545Z,21.40
2017-08-01T05:32:06.165Z,21.60
2017-08-01T05:34:58.277Z,21.60
2017-08-01T05:37:35.012Z,21.70
2017-08-01T05:40:08.625Z,21.90
2017-08-01T05:45:43.532Z,22.70
2017-08-01T05:48:13.567Z,23.00
2017-08-01T05:50:45.761Z,23.10
2017-08-01T05:53:20.221Z,23.30
2017-08-01T05:55:54.197Z,23.30
2017-08-01T05:58:26.845Z,23.30
2017-08-01T06:00:55.853Z,23.70
2017-08-01T06:03:25.637Z,24.10
2017-08-01T06:05:53.649Z,24.10
2017-08-01T06:08:21.685Z,24.30
2017-08-01T06:10:49.709Z,24.30
2017-08-01T06:13:21.449Z,24.40
2017-08-01T06:16:16.073Z,24.60
2017-08-01T06:18:48.807Z,24.80
2017-08-01T06:21:20.537Z,25.40
2017-08-01T06:24:06.372Z,25.60
2017-08-01T06:26:53.608Z,25.70
2017-08-01T06:29:21.640Z,25.70
2017-08-01T06:31:55.888Z,26.20
2017-08-01T06:34:25.876Z,26.10
2017-08-01T06:37:06.836Z,26.40
2017-08-01T06:39:43.777Z,27.00
2017-08-01T06:42:18.389Z,26.90
2017-08-01T06:44:48.328Z,27.00
2017-08-01T06:47:22.100Z,27.20
2017-08-01T06:52:43.885Z,27.60
2017-08-01T06:55:11.912Z,27.80
2017-08-01T06:57:48.065Z,27.90
2017-08-01T07:00:18.048Z,28.10
2017-08-01T07:02:47.848Z,27.80
2017-08-01T07:05:16.713Z,27.80
2017-08-01T07:07:44.732Z,28.20
2017-08-01T07:10:14.517Z,27.40
2017-08-01T07:12:49.828Z,27.40
2017-08-01T07:15:17.853Z,27.30
2017-08-01T07:17:47.640Z,27.60
2017-08-01T07:20:20.112Z,27.60
2017-08-01T07:22:49.036Z,27.70
2017-08-01T07:25:17.060Z,27.80
2017-08-01T07:27:50.780Z,27.80
2017-08-01T07:30:18.805Z,27.80
2017-08-01T07:32:46.820Z,28.10
2017-08-01T07:35:15.812Z,28.50
2017-08-01T07:37:43.840Z,29.10
2017-08-01T07:40:11.864Z,29.70
2017-08-01T07:42:44.845Z,30.00
2017-08-01T07:45:19.120Z,30.30
2017-08-01T07:47:52.931Z,30.30
2017-08-01T07:50:20.959Z,30.60
2017-08-01T07:52:48.988Z,30.80
2017-08-01T07:55:18.920Z,30.90
2017-08-01T07:57:46.951Z,30.80
2017-08-01T08:00:19.476Z,31.90
2017-08-01T08:02:48.273Z,32.50
2017-08-01T08:05:18.984Z,31.90
2017-08-01T08:07:47.004Z,31.90
2017-08-01T08:10:15.028Z,31.80
2017-08-01T08:12:43.055Z,31.10
2017-08-01T08:15:11.087Z,31.40
2017-08-01T08:20:36.400Z,30.90
2017-08-01T08:23:10.059Z,30.30
2017-08-01T08:25:42.696Z,29.80
2017-08-01T08:28:10.739Z,29.40
2017-08-01T08:30:38.766Z,29.70
2017-08-01T08:33:06.791Z,30.30
2017-08-01T08:35:35.595Z,31.70
2017-08-01T08:38:03.631Z,31.60
2017-08-01T08:40:31.655Z,31.90
2017-08-01T08:43:19.163Z,32.40
2017-08-01T08:45:47.191Z,33.00
2017-08-01T08:48:17.200Z,33.30
2017-08-01T08:53:39.276Z,31.50
2017-08-01T08:56:07.296Z,30.20
2017-08-01T08:58:35.311Z,29.60
2017-08-01T09:01:04.212Z,29.40
2017-08-01T09:03:32.255Z,29.50
2017-08-01T09:06:10.183Z,29.60
2017-08-01T09:08:43.507Z,31.30
2017-08-01T09:11:12.443Z,31.30
2017-08-01T09:13:40.519Z,32.20
2017-08-01T09:16:09.510Z,33.10
2017-08-01T09:18:38.491Z,33.70
2017-08-01T09:21:13.194Z,34.40
2017-08-01T09:23:42.207Z,34.90
2017-08-01T09:26:13.563Z,35.50
2017-08-01T09:28:41.579Z,35.70
2017-08-01T09:31:17.554Z,35.80
2017-08-01T09:33:48.755Z,35.80
2017-08-01T09:36:18.442Z,34.80
2017-08-01T09:38:47.358Z,34.70
2017-08-01T09:41:18.054Z,34.60
2017-08-01T09:43:48.118Z,34.60
2017-08-01T09:46:17.834Z,34.50
2017-08-01T09:48:58.281Z,34.70
2017-08-01T09:51:27.070Z,35.00
2017-08-01T09:54:06.546Z,35.50
2017-08-01T09:56:38.142Z,35.80
2017-08-01T09:59:09.322Z,35.80
2017-08-01T10:01:37.439Z,35.90
2017-08-01T10:04:05.442Z,36.60
2017-08-01T10:06:34.233Z,36.40
2017-08-01T10:09:04.941Z,36.30
2017-08-01T10:11:33.850Z,36.30
2017-08-01T10:14:13.754Z,36.20
2017-08-01T10:16:49.086Z,36.20
2017-08-01T10:19:18.038Z,36.60
2017-08-01T10:21:48.734Z,36.00
2017-08-01T10:24:18.766Z,36.00
2017-08-01T10:26:49.813Z,36.10
2017-08-01T10:29:18.802Z,36.30
2017-08-01T10:31:48.698Z,36.50
2017-08-01T10:34:17.610Z,36.70
2017-08-01T10:36:45.638Z,37.30
2017-08-01T10:39:13.654Z,37.90
2017-08-01T10:42:00.706Z,38.40
2017-08-01T10:44:28.733Z,38.30
2017-08-01T10:47:05.581Z,38.30
2017-08-01T10:49:38.581Z,38.50
2017-08-01T10:52:07.558Z,37.30
2017-08-01T10:54:48.866Z,37.90
2017-08-01T10:57:17.817Z,38.10
2017-08-01T10:59:51.637Z,37.60
2017-08-01T11:02:21.589Z,37.90
2017-08-01T11:04:51.373Z,38.20
2017-08-01T11:07:29.662Z,38.10
2017-08-01T11:10:02.309Z,36.90
2017-08-01T11:12:30.366Z,36.60
2017-08-01T11:15:01.074Z,38.00
2017-08-01T11:17:33.055Z,38.00
2017-08-01T11:20:04.077Z,37.70
2017-08-01T11:22:45.063Z,37.60
2017-08-01T11:25:17.321Z,37.60
2017-08-01T11:27:48.798Z,38.30
2017-08-01T11:30:16.825Z,39.10
2017-08-01T11:32:44.853Z,39.50
2017-08-01T11:35:17.533Z,39.70
2017-08-01T11:37:45.558Z,40.30
2017-08-01T11:40:15.474Z,39.90
2017-08-01T11:42:58.817Z,40.00
2017-08-01T11:45:31.677Z,39.80
2017-08-01T11:48:05.401Z,39.80
2017-08-01T11:50:34.442Z,40.10
2017-08-01T11:53:16.629Z,40.40
2017-08-01T11:55:45.578Z,40.70
2017-08-01T11:58:17.241Z,41.40
2017-08-01T12:00:49.801Z,40.60
2017-08-01T12:03:17.841Z,40.20
2017-08-01T12:05:52.149Z,40.60
2017-08-01T12:08:21.110Z,40.60
2017-08-01T12:10:50.117Z,41.10
2017-08-01T12:13:18.172Z,41.30
2017-08-01T12:15:49.513Z,41.80
2017-08-01T12:18:17.505Z,42.00
2017-08-01T12:20:45.557Z,41.80
2017-08-01T12:23:14.701Z,41.30
2017-08-01T12:25:43.781Z,42.00
2017-08-01T12:28:15.253Z,42.70
2017-08-01T12:30:43.297Z,43.60
2017-08-01T12:33:11.321Z,44.40
2017-08-01T12:35:40.349Z,43.00
2017-08-01T12:38:08.373Z,42.70
2017-08-01T12:40:37.388Z,42.40
2017-08-01T12:43:05.441Z,42.60
2017-08-01T12:45:33.596Z,42.80
2017-08-01T12:48:08.445Z,42.90
2017-08-01T12:50:36.657Z,43.70
2017-08-01T12:53:09.216Z,44.10
2017-08-01T12:55:38.005Z,44.60
2017-08-01T12:58:07.841Z,43.70
2017-08-01T13:00:35.913Z,43.70
2017-08-01T13:03:15.573Z,43.60
2017-08-01T13:05:45.513Z,43.50
2017-08-01T13:08:14.516Z,42.80
2017-08-01T13:11:01.929Z,42.80
2017-08-01T13:13:40.326Z,43.30
2017-08-01T13:16:08.365Z,43.60
2017-08-01T13:18:44.440Z,43.00
2017-08-01T13:21:12.480Z,43.30
2017-08-01T13:23:41.284Z,43.60
2017-08-01T13:26:09.305Z,43.60
2017-08-01T13:28:38.234Z,44.20
2017-08-01T13:31:07.013Z,44.80
2017-08-01T13:33:37.721Z,45.00
2017-08-01T13:36:15.604Z,45.00
2017-08-01T13:38:43.632Z,45.40
2017-08-01T13:41:11.669Z,44.90
2017-08-01T13:43:44.885Z,44.10
2017-08-01T13:46:14.564Z,43.80
2017-08-01T13:48:47.316Z,43.80
2017-08-01T13:51:15.352Z,44.40
2017-08-01T13:53:43.373Z,44.30
2017-08-01T13:56:13.432Z,44.80
2017-08-01T13:58:42.228Z,44.60
2017-08-01T14:01:10.252Z,44.60
2017-08-01T14:03:39.252Z,44.60
2017-08-01T14:06:07.280Z,44.10
2017-08-01T14:08:38.392Z,44.60
2017-08-01T14:11:06.408Z,44.30
2017-08-01T14:13:36.349Z,43.10
2017-08-01T14:16:10.144Z,43.50
2017-08-01T14:18:39.140Z,43.10
2017-08-01T14:21:09.200Z,43.20
2017-08-01T14:23:37.233Z,44.20
2017-08-01T14:26:05.262Z,44.70
2017-08-01T14:28:36.288Z,44.40
2017-08-01T14:31:04.308Z,43.70
2017-08-01T14:33:37.524Z,43.70
2017-08-01T14:36:15.888Z,43.90
2017-08-01T14:38:43.936Z,43.90
2017-08-01T14:41:15.437Z,43.60
2017-08-01T14:43:44.436Z,44.10
2017-08-01T14:46:14.448Z,44.40
2017-08-01T14:48:44.476Z,45.20
2017-08-01T14:51:13.464Z,44.90
2017-08-01T14:53:47.080Z,44.30
2017-08-01T14:56:15.096Z,43.50
2017-08-01T14:58:45.016Z,43.30
2017-08-01T15:01:14.955Z,42.60
2017-08-01T15:03:46.608Z,42.10
2017-08-01T15:06:14.628Z,42.10
2017-08-01T15:08:55.307Z,42.90
2017-08-01T15:11:30.157Z,43.20
2017-08-01T15:13:58.190Z,43.00
2017-08-01T15:16:26.216Z,43.10
2017-08-01T15:18:58.453Z,43.50
2017-08-01T15:21:28.368Z,43.00
2017-08-01T15:23:58.324Z,43.50
2017-08-01T15:26:31.408Z,43.30
2017-08-01T15:29:03.992Z,43.20
2017-08-01T15:31:32.979Z,43.40
2017-08-01T15:34:01.000Z,43.00
2017-08-01T15:36:41.571Z,42.10
2017-08-01T15:39:23.955Z,40.70
2017-08-01T15:42:05.756Z,38.60
2017-08-01T15:44:34.691Z,37.20
2017-08-01T15:47:09.187Z,36.30
2017-08-01T15:49:49.680Z,35.60
2017-08-01T15:52:20.731Z,35.10
2017-08-01T15:54:48.892Z,35.00
2017-08-01T15:57:25.879Z,35.00
2017-08-01T15:59:56.599Z,36.40
2017-08-01T16:02:35.827Z,36.40
2017-08-01T16:05:06.883Z,36.50
2017-08-01T16:07:35.123Z,36.00
2017-08-01T16:10:13.979Z,35.70
2017-08-01T16:12:42.959Z,34.70
2017-08-01T16:15:15.483Z,33.60
2017-08-01T16:17:47.663Z,32.90
2017-08-01T16:20:15.695Z,32.70
2017-08-01T16:22:52.335Z,31.90
2017-08-01T16:25:22.400Z,31.90
2017-08-01T16:27:53.076Z,30.70
2017-08-01T16:30:27.115Z,30.70
2017-08-01T16:32:57.131Z,30.80
2017-08-01T16:35:25.148Z,31.00
2017-08-01T16:37:55.119Z,31.10
2017-08-01T16:40:23.143Z,31.30
2017-08-01T16:42:51.159Z,31.50
2017-08-01T16:45:22.767Z,31.40
2017-08-01T16:47:54.471Z,31.20
2017-08-01T16:50:23.407Z,30.80
2017-08-01T16:52:52.335Z,30.60
2017-08-01T16:55:23.408Z,30.30
2017-08-01T16:57:54.118Z,29.90
2017-08-01T17:00:23.118Z,29.80
2017-08-01T17:02:51.135Z,29.70
2017-08-01T17:05:24.833Z,29.50
2017-08-01T17:07:52.845Z,29.40
2017-08-01T17:10:21.843Z,29.40
2017-08-01T17:12:51.775Z,29.30
2017-08-01T17:15:34.611Z,29.20
2017-08-01T17:18:03.415Z,29.40
2017-08-01T17:20:36.243Z,29.30
2017-08-01T17:23:04.284Z,29.50
2017-08-01T17:25:33.323Z,29.50
2017-08-01T17:28:02.314Z,29.40
2017-08-01T17:30:30.362Z,29.00
2017-08-01T17:33:04.274Z,28.60
2017-08-01T17:35:34.210Z,28.30
2017-08-01T17:38:02.234Z,28.10
2017-08-01T17:40:41.107Z,28.00
2017-08-01T17:43:10.090Z,28.00
2017-08-01T17:45:38.126Z,27.90
2017-08-01T17:48:06.150Z,27.80
2017-08-01T17:50:34.166Z,27.70
2017-08-01T17:53:12.282Z,27.60
2017-08-01T17:55:45.999Z,27.50
2017-08-01T17:58:21.622Z,27.40
2017-08-01T18:00:50.646Z,27.30
2017-08-01T18:03:18.878Z,27.30
2017-08-01T18:05:47.826Z,27.20
2017-08-01T18:08:18.546Z,27.10
2017-08-01T18:10:46.573Z,27.00
2017-08-01T18:13:20.130Z,27.00
2017-08-01T18:15:49.942Z,26.80
2017-08-01T18:18:18.726Z,26.70
2017-08-01T18:20:51.306Z,26.70
2017-08-01T18:23:19.326Z,26.70
2017-08-01T18:25:52.677Z,26.60
2017-08-01T18:28:22.581Z,26.60
2017-08-01T18:30:51.373Z,26.50
2017-08-01T18:33:45.505Z,26.50
2017-08-01T18:36:13.541Z,26.40
2017-08-01T18:38:51.494Z,26.40
2017-08-01T18:41:19.518Z,26.30
2017-08-01T18:43:48.310Z,25.80
2017-08-01T18:46:16.354Z,25.80
2017-08-01T18:48:48.518Z,25.00
2017-08-01T18:51:16.553Z,25.00
2017-08-01T18:53:45.565Z,24.60
2017-08-01T18:56:19.594Z,23.80
2017-08-01T18:58:49.617Z,23.80
2017-08-01T19:01:24.697Z,23.40
2017-08-01T19:03:58.406Z,23.40
2017-08-01T19:06:31.401Z,23.30
2017-08-01T19:09:05.202Z,23.20
2017-08-01T19:11:36.997Z,23.20
2017-08-01T19:14:05.085Z,23.30
2017-08-01T19:16:37.985Z,23.30
2017-08-01T19:19:06.009Z,23.40
2017-08-01T19:21:34.041Z,23.40
2017-08-01T19:24:12.789Z,23.30
2017-08-01T19:26:44.977Z,23.20
2017-08-01T19:29:14.065Z,23.20
2017-08-01T19:31:44.169Z,23.30
2017-08-01T19:34:12.201Z,23.30
2017-08-01T19:36:47.493Z,23.20
2017-08-01T19:39:15.509Z,23.20
2017-08-01T19:44:42.425Z,23.10
2017-08-01T19:47:11.469Z,23.00
2017-08-01T19:49:42.869Z,22.90
2017-08-01T19:52:10.901Z,22.90
2017-08-01T19:54:43.281Z,22.80
2017-08-01T19:57:11.317Z,22.80
2017-08-01T19:59:42.017Z,22.70
2017-08-01T20:02:11.012Z,22.70
2017-08-01T20:04:39.289Z,22.70
2017-08-01T20:10:03.652Z,22.70
2017-08-01T20:12:31.704Z,22.70
2017-08-01T20:15:00.645Z,22.60
2017-08-01T20:17:33.124Z,22.60
2017-08-01T20:20:02.165Z,22.50
2017-08-01T20:22:34.309Z,22.40
2017-08-01T20:25:03.288Z,22.30
2017-08-01T20:27:34.460Z,22.20
2017-08-01T20:30:04.536Z,22.20
2017-08-01T20:32:35.916Z,22.20
2017-08-01T20:35:05.260Z,22.20
2017-08-01T20:37:34.296Z,22.20
2017-08-01T20:40:04.108Z,22.20
2017-08-01T20:42:32.901Z,22.20
2017-08-01T20:45:03.704Z,22.00
2017-08-01T20:47:32.626Z,22.00
2017-08-01T20:50:04.980Z,22.10
2017-08-01T20:52:33.017Z,22.10
2017-08-01T20:55:04.188Z,22.30
2017-08-01T20:57:39.612Z,22.40
2017-08-01T21:00:08.533Z,22.40
2017-08-01T21:02:40.285Z,22.50
2017-08-01T21:05:09.308Z,22.50
2017-08-01T21:07:41.548Z,22.60
2017-08-01T21:10:10.480Z,22.50
2017-08-01T21:12:38.620Z,22.40
2017-08-01T21:15:06.664Z,22.30
2017-08-01T21:17:34.691Z,22.10
2017-08-01T21:20:02.716Z,21.70
2017-08-01T21:22:34.188Z,21.50
2017-08-01T21:25:02.728Z,21.30
2017-08-01T21:27:32.664Z,21.20
2017-08-01T21:30:00.692Z,21.10
2017-08-01T21:32:28.716Z,21.00
2017-08-01T21:34:57.636Z,20.90
2017-08-01T21:37:25.664Z,20.70
2017-08-01T21:39:53.695Z,20.70
2017-08-01T21:42:28.956Z,20.70
2017-08-01T21:44:58.928Z,20.60
2017-08-01T21:47:26.960Z,20.50
2017-08-01T21:49:58.132Z,20.40
2017-08-01T21:52:26.928Z,20.20
2017-08-01T21:54:55.856Z,20.20
2017-08-01T21:57:26.947Z,20.10
2017-08-01T21:59:56.755Z,20.00
2017-08-01T22:02:25.627Z,20.00
2017-08-01T22:04:55.828Z,20.00
2017-08-01T22:07:23.859Z,20.00
2017-08-01T22:09:51.883Z,19.90
2017-08-01T22:12:24.181Z,19.80
2017-08-01T22:14:53.959Z,19.60
2017-08-01T22:17:23.995Z,19.60
2017-08-01T22:19:55.155Z,19.60
2017-08-01T22:22:23.195Z,19.70
2017-08-01T22:24:55.567Z,19.70
2017-08-01T22:27:23.599Z,19.60
2017-08-01T22:29:51.763Z,19.70
2017-08-01T22:32:19.827Z,19.70
2017-08-01T22:34:47.867Z,19.80
2017-08-01T22:37:16.851Z,19.80
2017-08-01T22:39:44.875Z,19.50
2017-08-01T22:42:22.783Z,19.40
2017-08-01T22:44:54.802Z,19.30
2017-08-01T22:47:24.531Z,19.10
2017-08-01T22:49:53.495Z,19.10
2017-08-01T22:52:22.491Z,19.00
2017-08-01T22:54:52.572Z,19.00
2017-08-01T22:57:21.607Z,19.00
2017-08-01T22:59:51.395Z,19.00
2017-08-01T23:02:30.815Z,19.00
2017-08-01T23:04:58.931Z,19.00
2017-08-01T23:07:27.715Z,19.10
2017-08-01T23:10:00.214Z,19.10
2017-08-01T23:12:31.759Z,19.10
2017-08-01T23:15:01.760Z,19.20
2017-08-01T23:17:36.826Z,19.30
2017-08-01T23:20:06.875Z,19.20
2017-08-01T23:22:36.799Z,19.30
2017-08-01T23:25:09.852Z,19.30
2017-08-01T23:27:44.403Z,19.30
2017-08-01T23:30:18.218Z,19.30
2017-08-01T23:32:47.213Z,19.30
2017-08-01T23:35:15.375Z,19.20
2017-08-01T23:37:43.499Z,19.20
2017-08-01T23:40:12.438Z,19.10
2017-08-01T23:42:43.903Z,19.10
2017-08-01T23:45:11.931Z,19.10
2017-08-01T23:47:40.967Z,19.10
2017-08-01T23:50:09.011Z,19.10
2017-08-01T23:52:38.018Z,19.10
2017-08-01T23:55:09.086Z,19.10
2017-08-01T23:57:37.103Z,19.10
